createdAt,value
2023-05-06T00:02:25.088Z,100242.00
2023-05-06T00:04:52.725Z,100238.00
2023-05-06T00:07:20.453Z,100234.00
2023-05-06T00:09:48.655Z,100241.00
2023-05-06T00:12:16.160Z,100236.00
2023-05-06T00:14:43.715Z,100230.00
2023-05-06T00:17:11.313Z,100235.00
2023-05-06T00:19:39.010Z,100237.00
2023-05-06T00:22:06.582Z,100230.00
2023-05-06T00:24:34.025Z,100224.00
2023-05-06T00:27:02.247Z,100232.00
2023-05-06T00:29:29.766Z,100228.00
2023-05-06T00:31:57.253Z,100224.00
2023-05-06T00:34:24.796Z,100215.00
2023-05-06T00:36:52.272Z,100208.00
2023-05-06T00:39:20.503Z,100202.00
2023-05-06T00:41:48.012Z,100210.00
2023-05-06T00:44:16.176Z,100208.00
2023-05-06T00:46:43.967Z,100204.00
2023-05-06T00:49:12.567Z,100201.00
2023-05-06T00:51:40.075Z,100200.00
2023-05-06T00:54:07.601Z,100190.00
2023-05-06T00:56:35.416Z,100192.00
2023-05-06T00:59:02.874Z,100177.00
2023-05-06T01:01:32.560Z,100168.00
2023-05-06T01:04:00.321Z,100160.00
2023-05-06T01:06:49.559Z,100169.00
2023-05-06T01:09:24.537Z,100177.00
2023-05-06T01:11:56.126Z,100176.00
2023-05-06T01:14:33.046Z,100176.00
2023-05-06T01:17:05.663Z,100180.00
2023-05-06T01:19:38.896Z,100181.00
2023-05-06T01:22:07.755Z,100176.00
2023-05-06T01:24:37.321Z,100174.00
2023-05-06T01:27:05.105Z,100174.00
2023-05-06T01:29:33.783Z,100180.00
2023-05-06T01:32:11.435Z,100179.00
2023-05-06T01:34:45.735Z,100189.00
2023-05-06T01:37:23.350Z,100189.00
2023-05-06T01:39:55.762Z,100184.00
2023-05-06T01:42:26.418Z,100194.00
2023-05-06T01:44:56.769Z,100195.00
2023-05-06T01:47:24.845Z,100186.00
2023-05-06T01:49:52.978Z,100179.00
2023-05-06T01:52:21.897Z,100174.00
2023-05-06T01:54:50.112Z,100171.00
2023-05-06T01:57:17.568Z,100169.00
2023-05-06T01:59:45.028Z,100164.00
2023-05-06T02:02:12.950Z,100166.00
2023-05-06T02:04:40.649Z,100167.00
2023-05-06T02:07:08.141Z,100167.00
2023-05-06T02:09:35.607Z,100165.00
2023-05-06T02:12:04.050Z,100168.00
2023-05-06T02:14:31.518Z,100155.00
2023-05-06T02:17:02.881Z,100157.00
2023-05-06T02:19:30.433Z,100160.00
2023-05-06T02:21:57.894Z,100147.00
2023-05-06T02:24:26.230Z,100147.00
2023-05-06T02:26:53.710Z,100141.00
2023-05-06T02:29:21.870Z,100140.00
2023-05-06T02:31:49.413Z,100136.00
2023-05-06T02:34:16.954Z,100142.00
2023-05-06T02:36:44.466Z,100140.00
2023-05-06T02:39:11.924Z,100134.00
2023-05-06T02:41:39.444Z,100135.00
2023-05-06T02:44:07.060Z,100146.00
2023-05-06T02:46:35.622Z,100136.00
2023-05-06T02:49:03.222Z,100145.00
2023-05-06T02:51:31.219Z,100142.00
2023-05-06T02:53:58.661Z,100138.00
2023-05-06T02:56:26.086Z,100140.00
2023-05-06T02:58:53.766Z,100138.00
2023-05-06T03:01:21.180Z,100135.00
2023-05-06T03:03:49.552Z,100136.00
2023-05-06T03:06:17.002Z,100130.00
2023-05-06T03:08:44.465Z,100128.00
2023-05-06T03:11:11.922Z,100138.00
2023-05-06T03:13:39.363Z,100136.00
2023-05-06T03:16:11.611Z,100138.00
2023-05-06T03:18:39.017Z,100141.00
2023-05-06T03:21:07.354Z,100123.00
2023-05-06T03:23:34.831Z,100130.00
2023-05-06T03:26:02.363Z,100128.00
2023-05-06T03:28:30.252Z,100137.00
2023-05-06T03:30:57.732Z,100136.00
2023-05-06T03:33:27.065Z,100136.00
2023-05-06T03:35:54.539Z,100125.00
2023-05-06T03:38:28.625Z,100128.00
2023-05-06T03:41:00.554Z,100128.00
2023-05-06T03:43:28.661Z,100130.00
2023-05-06T03:45:56.114Z,100124.00
2023-05-06T03:48:23.722Z,100119.00
2023-05-06T03:50:51.283Z,100125.00
2023-05-06T03:53:18.784Z,100120.00
2023-05-06T03:55:46.934Z,100125.00
2023-05-06T03:58:14.409Z,100125.00
2023-05-06T04:00:41.875Z,100118.00
2023-05-06T04:03:09.442Z,100124.00
2023-05-06T04:05:36.961Z,100122.00
2023-05-06T04:08:04.696Z,100130.00
2023-05-06T04:10:32.152Z,100135.00
2023-05-06T04:13:00.362Z,100132.00
2023-05-06T04:15:31.297Z,100142.00
2023-05-06T04:17:58.757Z,100135.00
2023-05-06T04:20:26.270Z,100147.00
2023-05-06T04:22:53.763Z,100143.00
2023-05-06T04:25:21.557Z,100149.00
2023-05-06T04:27:49.232Z,100151.00
2023-05-06T04:30:17.476Z,100158.00
2023-05-06T04:32:44.891Z,100147.00
2023-05-06T04:35:12.866Z,100157.00
2023-05-06T04:37:41.304Z,100151.00
2023-05-06T04:40:10.960Z,100156.00
2023-05-06T04:42:38.836Z,100159.00
2023-05-06T04:45:07.482Z,100160.00
2023-05-06T04:47:35.902Z,100163.00
2023-05-06T04:50:03.829Z,100161.00
2023-05-06T04:52:31.451Z,100167.00
2023-05-06T04:54:58.905Z,100162.00
2023-05-06T04:57:26.398Z,100161.00
2023-05-06T04:59:53.790Z,100157.00
2023-05-06T05:02:21.327Z,100170.00
2023-05-06T05:04:49.819Z,100168.00
2023-05-06T05:07:17.269Z,100160.00
2023-05-06T05:09:44.953Z,100165.00
2023-05-06T05:12:12.505Z,100161.00
2023-05-06T05:14:39.906Z,100166.00
2023-05-06T05:17:07.512Z,100170.00
2023-05-06T05:19:35.281Z,100172.00
2023-05-06T05:22:03.493Z,100186.00
2023-05-06T05:24:30.918Z,100181.00
2023-05-06T05:26:58.413Z,100185.00
2023-05-06T05:29:25.862Z,100181.00
2023-05-06T05:31:53.400Z,100180.00
2023-05-06T05:34:20.847Z,100186.00
2023-05-06T05:36:48.318Z,100183.00
2023-05-06T05:39:16.589Z,100178.00
2023-05-06T05:41:44.084Z,100188.00
2023-05-06T05:44:11.595Z,100200.00
2023-05-06T05:46:39.081Z,100203.00
2023-05-06T05:49:06.522Z,100198.00
2023-05-06T05:51:33.964Z,100200.00
2023-05-06T05:54:01.459Z,100194.00
2023-05-06T05:56:29.702Z,100191.00
2023-05-06T05:58:57.141Z,100202.00
2023-05-06T06:01:24.679Z,100212.00
2023-05-06T06:03:53.553Z,100199.00
2023-05-06T06:06:21.075Z,100200.00
2023-05-06T06:08:48.569Z,100198.00
2023-05-06T06:11:16.187Z,100200.00
2023-05-06T06:13:44.270Z,100215.00
2023-05-06T06:16:11.921Z,100212.00
2023-05-06T06:18:39.371Z,100211.00
2023-05-06T06:21:07.092Z,100219.00
2023-05-06T06:23:34.840Z,100209.00
2023-05-06T06:26:03.276Z,100213.00
2023-05-06T06:28:31.122Z,100220.00
2023-05-06T06:30:59.282Z,100221.00
2023-05-06T06:33:26.724Z,100231.00
2023-05-06T06:35:54.196Z,100237.00
2023-05-06T06:38:21.608Z,100228.00
2023-05-06T06:40:49.041Z,100233.00
2023-05-06T06:43:19.106Z,100234.00
2023-05-06T06:45:47.963Z,100229.00
2023-05-06T06:48:16.506Z,100229.00
2023-05-06T06:50:44.354Z,100241.00
2023-05-06T06:53:12.145Z,100242.00
2023-05-06T06:55:42.402Z,100244.00
2023-05-06T06:58:09.874Z,100246.00
2023-05-06T07:00:37.490Z,100245.00
2023-05-06T07:03:05.039Z,100252.00
2023-05-06T07:05:33.196Z,100247.00
2023-05-06T07:08:00.650Z,100250.00
2023-05-06T07:10:28.056Z,100256.00
2023-05-06T07:12:55.762Z,100254.00
2023-05-06T07:15:23.639Z,100257.00
2023-05-06T07:17:51.177Z,100267.00
2023-05-06T07:20:18.757Z,100259.00
2023-05-06T07:22:46.970Z,100263.00
2023-05-06T07:25:14.888Z,100269.00
2023-05-06T07:27:42.308Z,100279.00
2023-05-06T07:30:10.555Z,100269.00
2023-05-06T07:32:38.015Z,100282.00
2023-05-06T07:35:06.100Z,100281.00
2023-05-06T07:37:33.673Z,100274.00
2023-05-06T07:40:01.865Z,100273.00
2023-05-06T07:42:29.349Z,100280.00
2023-05-06T07:44:56.766Z,100288.00
2023-05-06T07:47:28.807Z,100291.00
2023-05-06T07:49:56.754Z,100297.00
2023-05-06T07:52:24.605Z,100292.00
2023-05-06T07:54:52.920Z,100295.00
2023-05-06T07:57:21.095Z,100295.00
2023-05-06T07:59:50.056Z,100303.00
2023-05-06T08:02:17.758Z,100303.00
2023-05-06T08:04:45.669Z,100304.00
2023-05-06T08:07:14.201Z,100303.00
2023-05-06T08:09:41.647Z,100301.00
2023-05-06T08:12:09.206Z,100311.00
2023-05-06T08:14:37.323Z,100297.00
2023-05-06T08:17:04.845Z,100317.00
2023-05-06T08:19:32.280Z,100319.00
2023-05-06T08:21:59.788Z,100313.00
2023-05-06T08:24:28.135Z,100318.00
2023-05-06T08:26:55.622Z,100326.00
2023-05-06T08:29:23.050Z,100324.00
2023-05-06T08:31:51.251Z,100319.00
2023-05-06T08:34:20.567Z,100333.00
2023-05-06T08:36:48.176Z,100336.00
2023-05-06T08:39:15.668Z,100338.00
2023-05-06T08:41:47.202Z,100335.00
2023-05-06T08:44:17.630Z,100351.00
2023-05-06T08:46:45.354Z,100356.00
2023-05-06T08:49:13.577Z,100353.00
2023-05-06T08:51:43.337Z,100354.00
2023-05-06T08:54:12.264Z,100364.00
2023-05-06T08:56:43.830Z,100361.00
2023-05-06T08:59:13.053Z,100356.00
2023-05-06T09:01:40.918Z,100359.00
2023-05-06T09:04:08.430Z,100367.00
2023-05-06T09:06:36.879Z,100363.00
2023-05-06T09:09:05.059Z,100370.00
2023-05-06T09:11:32.561Z,100364.00
2023-05-06T09:14:11.423Z,100363.00
2023-05-06T09:16:39.482Z,100354.00
2023-05-06T09:19:07.083Z,100351.00
2023-05-06T09:21:36.369Z,100358.00
2023-05-06T09:24:05.397Z,100358.00
2023-05-06T09:26:33.907Z,100368.00
2023-05-06T09:29:01.993Z,100370.00
2023-05-06T09:31:30.024Z,100360.00
2023-05-06T09:33:59.980Z,100372.00
2023-05-06T09:36:28.498Z,100371.00
2023-05-06T09:38:57.162Z,100367.00
2023-05-06T09:41:25.338Z,100373.00
2023-05-06T09:43:53.855Z,100369.00
2023-05-06T09:46:22.366Z,100367.00
2023-05-06T09:48:51.837Z,100372.00
2023-05-06T09:51:19.656Z,100367.00
2023-05-06T09:53:47.639Z,100379.00
2023-05-06T09:56:16.534Z,100383.00
2023-05-06T09:58:45.589Z,100388.00
2023-05-06T10:01:19.259Z,100383.00
2023-05-06T10:03:55.189Z,100386.00
2023-05-06T10:06:24.302Z,100392.00
2023-05-06T10:08:52.710Z,100391.00
2023-05-06T10:11:22.771Z,100391.00
2023-05-06T10:13:50.874Z,100386.00
2023-05-06T10:16:19.374Z,100391.00
2023-05-06T10:18:49.178Z,100391.00
2023-05-06T10:21:24.064Z,100394.00
2023-05-06T10:23:56.983Z,100396.00
2023-05-06T10:26:27.250Z,100395.00
2023-05-06T10:28:55.448Z,100395.00
2023-05-06T10:31:23.017Z,100398.00
2023-05-06T10:33:52.782Z,100396.00
2023-05-06T10:36:22.321Z,100397.00
2023-05-06T10:38:55.838Z,100396.00
2023-05-06T10:41:27.128Z,100396.00
2023-05-06T10:43:56.333Z,100388.00
2023-05-06T10:46:25.463Z,100404.00
2023-05-06T10:49:19.685Z,100400.00
2023-05-06T10:51:48.728Z,100392.00
2023-05-06T10:54:25.281Z,100399.00
2023-05-06T10:57:10.247Z,100401.00
2023-05-06T10:59:44.205Z,100402.00
2023-05-06T11:02:11.801Z,100402.00
2023-05-06T11:04:39.644Z,100391.00
2023-05-06T11:07:12.682Z,100395.00
2023-05-06T11:09:56.663Z,100394.00
2023-05-06T11:12:45.227Z,100401.00
2023-05-06T11:15:25.958Z,100395.00
2023-05-06T11:17:55.221Z,100402.00
2023-05-06T11:20:24.755Z,100403.00
2023-05-06T11:22:52.891Z,100408.00
2023-05-06T11:25:39.788Z,100414.00
2023-05-06T11:28:09.937Z,100416.00
2023-05-06T11:30:40.440Z,100428.00
2023-05-06T11:33:12.137Z,100420.00
2023-05-06T11:35:39.795Z,100430.00
2023-05-06T11:38:07.301Z,100433.00
2023-05-06T11:40:34.788Z,100428.00
2023-05-06T11:43:13.146Z,100428.00
2023-05-06T11:45:41.898Z,100432.00
2023-05-06T11:48:12.606Z,100430.00
2023-05-06T11:50:43.780Z,100427.00
2023-05-06T11:53:11.361Z,100433.00
2023-05-06T11:55:39.820Z,100437.00
2023-05-06T11:58:12.913Z,100439.00
2023-05-06T12:00:49.068Z,100444.00
2023-05-06T12:03:18.324Z,100432.00
2023-05-06T12:05:47.514Z,100438.00
2023-05-06T12:08:26.790Z,100441.00
2023-05-06T12:10:57.998Z,100440.00
2023-05-06T12:13:26.733Z,100443.00
2023-05-06T12:15:55.309Z,100449.00
2023-05-06T12:18:23.733Z,100455.00
2023-05-06T12:20:53.207Z,100447.00
2023-05-06T12:23:21.319Z,100439.00
2023-05-06T12:26:02.121Z,100452.00
2023-05-06T12:28:32.132Z,100441.00
2023-05-06T12:30:59.914Z,100456.00
2023-05-06T12:33:28.146Z,100447.00
2023-05-06T12:36:07.557Z,100458.00
2023-05-06T12:38:35.103Z,100453.00
2023-05-06T12:41:03.707Z,100457.00
2023-05-06T12:43:32.425Z,100450.00
2023-05-06T12:46:07.296Z,100452.00
2023-05-06T12:48:35.071Z,100458.00
2023-05-06T12:51:18.340Z,100458.00
2023-05-06T12:53:45.964Z,100463.00
2023-05-06T12:56:13.524Z,100476.00
2023-05-06T12:58:41.709Z,100462.00
2023-05-06T13:01:09.275Z,100473.00
2023-05-06T13:03:40.172Z,100482.00
2023-05-06T13:06:07.833Z,100468.00
2023-05-06T13:08:35.516Z,100472.00
2023-05-06T13:11:03.259Z,100466.00
2023-05-06T13:13:30.711Z,100462.00
2023-05-06T13:15:59.001Z,100468.00
2023-05-06T13:18:26.492Z,100464.00
2023-05-06T13:20:54.041Z,100464.00
2023-05-06T13:23:21.823Z,100476.00
2023-05-06T13:26:03.369Z,100488.00
2023-05-06T13:28:32.976Z,100481.00
2023-05-06T13:31:01.256Z,100492.00
2023-05-06T13:33:28.703Z,100488.00
2023-05-06T13:35:56.359Z,100496.00
2023-05-06T13:38:24.061Z,100501.00
2023-05-06T13:40:52.692Z,100489.00
2023-05-06T13:43:20.816Z,100500.00
2023-05-06T13:45:48.297Z,100498.00
2023-05-06T13:48:16.736Z,100510.00
2023-05-06T13:50:45.601Z,100495.00
2023-05-06T13:53:13.258Z,100504.00
2023-05-06T13:55:41.251Z,100496.00
2023-05-06T13:58:09.006Z,100496.00
2023-05-06T14:00:36.439Z,100502.00
2023-05-06T14:03:04.072Z,100492.00
2023-05-06T14:05:33.935Z,100489.00
2023-05-06T14:08:01.471Z,100490.00
2023-05-06T14:10:29.054Z,100490.00
2023-05-06T14:12:56.588Z,100474.00
2023-05-06T14:15:24.201Z,100476.00
2023-05-06T14:17:51.725Z,100481.00
2023-05-06T14:20:19.337Z,100481.00
2023-05-06T14:22:47.796Z,100477.00
2023-05-06T14:25:15.429Z,100476.00
2023-05-06T14:27:44.732Z,100480.00
2023-05-06T14:30:13.105Z,100488.00
2023-05-06T14:32:40.577Z,100490.00
2023-05-06T14:35:09.646Z,100490.00
2023-05-06T14:37:37.576Z,100492.00
2023-05-06T14:40:07.713Z,100506.00
2023-05-06T14:42:35.525Z,100502.00
2023-05-06T14:45:03.394Z,100497.00
2023-05-06T14:47:31.064Z,100489.00
2023-05-06T14:49:58.738Z,100499.00
2023-05-06T14:52:26.287Z,100496.00
2023-05-06T14:54:53.752Z,100503.00
2023-05-06T14:57:21.978Z,100503.00
2023-05-06T14:59:51.382Z,100498.00
2023-05-06T15:02:18.925Z,100512.00
2023-05-06T15:04:46.491Z,100501.00
2023-05-06T15:07:13.976Z,100495.00
2023-05-06T15:09:43.374Z,100497.00
2023-05-06T15:12:11.066Z,100495.00
2023-05-06T15:14:39.383Z,100504.00
2023-05-06T15:17:06.899Z,100506.00
2023-05-06T15:19:34.477Z,100502.00
2023-05-06T15:22:02.756Z,100497.00
2023-05-06T15:24:30.188Z,100495.00
2023-05-06T15:26:57.673Z,100510.00
2023-05-06T15:29:25.520Z,100495.00
2023-05-06T15:31:53.862Z,100504.00
2023-05-06T15:34:21.376Z,100494.00
2023-05-06T15:36:52.268Z,100501.00
2023-05-06T15:39:20.206Z,100501.00
2023-05-06T15:41:47.877Z,100506.00
2023-05-06T15:44:16.222Z,100515.00
2023-05-06T15:46:44.091Z,100506.00
2023-05-06T15:49:45.697Z,100509.00
2023-05-06T15:52:01.289Z,100518.00
2023-05-06T15:54:29.196Z,100514.00
2023-05-06T15:56:58.869Z,100518.00
2023-05-06T15:59:27.040Z,100502.00
2023-05-06T16:04:25.950Z,100502.00
2023-05-06T16:06:53.775Z,100518.00
2023-05-06T16:09:21.253Z,100500.00
2023-05-06T16:11:48.780Z,100505.00
2023-05-06T16:14:16.320Z,100511.00
2023-05-06T16:16:43.995Z,100503.00
2023-05-06T16:19:11.586Z,100504.00
2023-05-06T16:21:39.792Z,100507.00
2023-05-06T16:24:07.976Z,100508.00
2023-05-06T16:26:35.907Z,100504.00
2023-05-06T16:29:03.375Z,100517.00
2023-05-06T16:31:31.867Z,100512.00
2023-05-06T16:33:59.421Z,100512.00
2023-05-06T16:36:28.131Z,100518.00
2023-05-06T16:38:56.255Z,100513.00
2023-05-06T16:41:23.746Z,100513.00
2023-05-06T16:43:51.268Z,100517.00
2023-05-06T16:46:18.783Z,100519.00
2023-05-06T16:48:46.462Z,100512.00
2023-05-06T16:51:15.142Z,100515.00
2023-05-06T16:53:42.725Z,100521.00
2023-05-06T16:56:10.942Z,100520.00
2023-05-06T16:58:38.462Z,100522.00
2023-05-06T17:01:07.430Z,100525.00
2023-05-06T17:03:37.053Z,100525.00
2023-05-06T17:06:05.063Z,100532.00
2023-05-06T17:08:36.339Z,100520.00
2023-05-06T17:11:06.851Z,100519.00
2023-05-06T17:13:35.168Z,100517.00
2023-05-06T17:16:02.616Z,100520.00
2023-05-06T17:18:30.102Z,100526.00
2023-05-06T17:20:57.993Z,100540.00
2023-05-06T17:23:25.631Z,100534.00
2023-05-06T17:25:55.096Z,100535.00
2023-05-06T17:28:22.580Z,100532.00
2023-05-06T17:30:50.738Z,100538.00
2023-05-06T17:33:18.294Z,100540.00
2023-05-06T17:35:45.876Z,100534.00
2023-05-06T17:38:13.958Z,100543.00
2023-05-06T17:40:41.409Z,100535.00
2023-05-06T17:43:09.395Z,100537.00
2023-05-06T17:45:36.832Z,100539.00
2023-05-06T17:48:05.480Z,100536.00
2023-05-06T17:50:33.084Z,100549.00
2023-05-06T17:53:00.557Z,100541.00
2023-05-06T17:55:28.218Z,100551.00
2023-05-06T17:57:55.682Z,100554.00
2023-05-06T18:00:23.333Z,100558.00
2023-05-06T18:02:50.912Z,100558.00
2023-05-06T18:05:19.198Z,100560.00
2023-05-06T18:07:47.371Z,100567.00
2023-05-06T18:10:14.801Z,100571.00
2023-05-06T18:12:44.624Z,100570.00
2023-05-06T18:15:12.742Z,100558.00
2023-05-06T18:17:40.466Z,100566.00
2023-05-06T18:20:09.500Z,100559.00
2023-05-06T18:22:38.371Z,100569.00
2023-05-06T18:25:07.129Z,100562.00
2023-05-06T18:27:34.745Z,100568.00
2023-05-06T18:30:02.425Z,100566.00
2023-05-06T18:32:30.890Z,100583.00
2023-05-06T18:34:58.931Z,100583.00
2023-05-06T18:37:28.610Z,100579.00
2023-05-06T18:39:56.780Z,100583.00
2023-05-06T18:42:24.276Z,100598.00
2023-05-06T18:44:51.794Z,100601.00
2023-05-06T18:47:19.492Z,100600.00
2023-05-06T18:49:46.977Z,100597.00
2023-05-06T18:52:15.965Z,100599.00
2023-05-06T18:54:43.529Z,100608.00
2023-05-06T18:57:11.901Z,100604.00
2023-05-06T18:59:39.462Z,100598.00
2023-05-06T19:02:07.325Z,100608.00
2023-05-06T19:04:35.157Z,100605.00
2023-05-06T19:07:02.683Z,100606.00
2023-05-06T19:09:32.182Z,100594.00
2023-05-06T19:11:59.702Z,100601.00
2023-05-06T19:14:27.860Z,100603.00
2023-05-06T19:16:55.409Z,100610.00
2023-05-06T19:19:23.117Z,100604.00
2023-05-06T19:21:50.641Z,100618.00
2023-05-06T19:24:18.132Z,100611.00
2023-05-06T19:26:45.693Z,100611.00
2023-05-06T19:29:14.026Z,100619.00
2023-05-06T19:31:42.146Z,100621.00
2023-05-06T19:34:09.618Z,100619.00
2023-05-06T19:36:37.153Z,100623.00
2023-05-06T19:39:04.734Z,100631.00
2023-05-06T19:41:32.883Z,100629.00
2023-05-06T19:44:00.328Z,100636.00
2023-05-06T19:46:27.875Z,100632.00
2023-05-06T19:48:57.416Z,100632.00
2023-05-06T19:51:24.974Z,100638.00
2023-05-06T19:53:52.653Z,100630.00
2023-05-06T19:56:20.135Z,100638.00
2023-05-06T19:58:47.845Z,100625.00
2023-05-06T20:01:16.363Z,100630.00
2023-05-06T20:03:44.285Z,100625.00
2023-05-06T20:06:12.442Z,100625.00
2023-05-06T20:08:39.878Z,100624.00
2023-05-06T20:11:07.344Z,100629.00
2023-05-06T20:13:34.861Z,100622.00
2023-05-06T20:16:03.562Z,100616.00
2023-05-06T20:18:31.255Z,100625.00
2023-05-06T20:20:58.737Z,100623.00
2023-05-06T20:23:26.891Z,100620.00
2023-05-06T20:25:54.439Z,100626.00
2023-05-06T20:28:21.905Z,100630.00
2023-05-06T20:30:50.630Z,100628.00
2023-05-06T20:33:18.179Z,100623.00
2023-05-06T20:35:46.146Z,100620.00
2023-05-06T20:38:16.224Z,100628.00
2023-05-06T20:40:44.535Z,100622.00
2023-05-06T20:43:12.042Z,100624.00
2023-05-06T20:45:39.625Z,100625.00
2023-05-06T20:48:14.999Z,100631.00
2023-05-06T20:50:42.809Z,100640.00
2023-05-06T20:53:10.230Z,100640.00
2023-05-06T20:55:37.848Z,100634.00
2023-05-06T20:58:06.165Z,100646.00
2023-05-06T21:00:33.613Z,100638.00
2023-05-06T21:03:01.372Z,100647.00
2023-05-06T21:05:28.937Z,100662.00
2023-05-06T21:07:56.423Z,100650.00
2023-05-06T21:10:23.860Z,100646.00
2023-05-06T21:12:51.466Z,100659.00
2023-05-06T21:15:19.953Z,100654.00
2023-05-06T21:17:51.856Z,100655.00
2023-05-06T21:20:19.756Z,100649.00
2023-05-06T21:22:47.807Z,100655.00
2023-05-06T21:25:15.487Z,100655.00
2023-05-06T21:27:43.204Z,100657.00
2023-05-06T21:30:11.371Z,100648.00
2023-05-06T21:32:39.801Z,100652.00
2023-05-06T21:35:08.102Z,100653.00
2023-05-06T21:37:35.957Z,100656.00
2023-05-06T21:40:03.850Z,100657.00
2023-05-06T21:42:31.298Z,100664.00
2023-05-06T21:44:58.805Z,100664.00
2023-05-06T21:47:26.434Z,100663.00
2023-05-06T21:49:56.337Z,100663.00
2023-05-06T21:52:24.376Z,100656.00
2023-05-06T21:54:51.948Z,100658.00
2023-05-06T21:57:19.420Z,100662.00
2023-05-06T21:59:46.692Z,100662.00
2023-05-06T22:02:14.382Z,100665.00
2023-05-06T22:04:41.991Z,100656.00
2023-05-06T22:07:10.140Z,100662.00
2023-05-06T22:09:37.580Z,100665.00
2023-05-06T22:12:07.861Z,100658.00
2023-05-06T22:14:41.153Z,100664.00
2023-05-06T22:17:09.604Z,100660.00
2023-05-06T22:19:37.729Z,100658.00
2023-05-06T22:22:05.816Z,100655.00
2023-05-06T22:24:34.052Z,100652.00
2023-05-06T22:27:01.495Z,100655.00
2023-05-06T22:29:29.028Z,100656.00
2023-05-06T22:31:56.609Z,100656.00
2023-05-06T22:34:24.124Z,100664.00
2023-05-06T22:36:51.589Z,100661.00
2023-05-06T22:39:19.045Z,100655.00
2023-05-06T22:41:49.635Z,100664.00
2023-05-06T22:44:17.074Z,100651.00
2023-05-06T22:46:44.573Z,100650.00
2023-05-06T22:49:11.978Z,100661.00
2023-05-06T22:51:39.514Z,100661.00
2023-05-06T22:54:06.940Z,100667.00
2023-05-06T22:56:34.418Z,100665.00
2023-05-06T22:59:02.604Z,100666.00
2023-05-06T23:01:31.414Z,100663.00
2023-05-06T23:03:59.367Z,100665.00
2023-05-06T23:06:28.346Z,100667.00
2023-05-06T23:08:55.856Z,100664.00
2023-05-06T23:11:23.458Z,100666.00
2023-05-06T23:13:50.994Z,100673.00
2023-05-06T23:16:19.272Z,100669.00
2023-05-06T23:18:46.861Z,100666.00
2023-05-06T23:21:14.447Z,100668.00
2023-05-06T23:23:41.945Z,100672.00
2023-05-06T23:26:09.564Z,100668.00
2023-05-06T23:28:37.003Z,100666.00
2023-05-06T23:31:04.515Z,100670.00
2023-05-06T23:33:32.610Z,100665.00
2023-05-06T23:36:00.414Z,100673.00
2023-05-06T23:38:27.923Z,100670.00
2023-05-06T23:40:55.576Z,100661.00
2023-05-06T23:43:23.015Z,100667.00
2023-05-06T23:45:50.770Z,100671.00
2023-05-06T23:48:18.810Z,100666.00
2023-05-06T23:50:48.072Z,100662.00
2023-05-06T23:53:15.478Z,100664.00
2023-05-06T23:55:43.197Z,100664.00
2023-05-06T23:58:10.694Z,100662.00
